sensor_id;sensor_type;location;lat;lon;timestamp;P1;durP1;ratioP1;P2;durP2;ratioP2
9108;SDS011;4590;51.462;6.692;2023-12-20T00:02:07;11.90;;;6.80;;
9108;SDS011;4590;51.462;6.692;2023-12-20T00:04:33;13.10;;;7.03;;
9108;SDS011;4590;51.462;6.692;2023-12-20T00:06:58;12.47;;;7.17;;
9108;SDS011;4590;51.462;6.692;2023-12-20T00:09:23;10.40;;;5.53;;
9108;SDS011;4590;51.462;6.692;2023-12-20T00:11:49;10.50;;;6.37;;
9108;SDS011;4590;51.462;6.692;2023-12-20T00:14:14;12.57;;;6.60;;
9108;SDS011;4590;51.462;6.692;2023-12-20T00:16:39;10.27;;;6.03;;
9108;SDS011;4590;51.462;6.692;2023-12-20T00:19:04;11.53;;;6.13;;
9108;SDS011;4590;51.462;6.692;2023-12-20T00:21:30;10.60;;;5.90;;
9108;SDS011;4590;51.462;6.692;2023-12-20T00:23:55;9.87;;;5.73;;
9108;SDS011;4590;51.462;6.692;2023-12-20T00:26:20;12.20;;;5.73;;
9108;SDS011;4590;51.462;6.692;2023-12-20T00:28:46;12.13;;;5.70;;
9108;SDS011;4590;51.462;6.692;2023-12-20T00:31:11;11.73;;;5.50;;
9108;SDS011;4590;51.462;6.692;2023-12-20T00:33:36;11.07;;;6.53;;
9108;SDS011;4590;51.462;6.692;2023-12-20T00:36:01;9.47;;;5.47;;
9108;SDS011;4590;51.462;6.692;2023-12-20T00:38:27;11.77;;;5.27;;
9108;SDS011;4590;51.462;6.692;2023-12-20T00:40:52;8.03;;;4.47;;
9108;SDS011;4590;51.462;6.692;2023-12-20T00:43:17;12.07;;;5.80;;
9108;SDS011;4590;51.462;6.692;2023-12-20T00:45:43;10.53;;;5.43;;
9108;SDS011;4590;51.462;6.692;2023-12-20T00:48:08;10.50;;;5.43;;
9108;SDS011;4590;51.462;6.692;2023-12-20T00:50:33;11.33;;;6.00;;
9108;SDS011;4590;51.462;6.692;2023-12-20T00:52:58;13.23;;;6.00;;
9108;SDS011;4590;51.462;6.692;2023-12-20T00:55:24;11.13;;;6.13;;
9108;SDS011;4590;51.462;6.692;2023-12-20T00:57:49;10.57;;;6.30;;
9108;SDS011;4590;51.462;6.692;2023-12-20T01:00:14;11.53;;;6.03;;
9108;SDS011;4590;51.462;6.692;2023-12-20T01:02:40;12.10;;;6.82;;
9108;SDS011;4590;51.462;6.692;2023-12-20T01:05:06;12.87;;;7.47;;
9108;SDS011;4590;51.462;6.692;2023-12-20T01:07:32;13.00;;;7.07;;
9108;SDS011;4590;51.462;6.692;2023-12-20T01:09:57;10.33;;;5.93;;
9108;SDS011;4590;51.462;6.692;2023-12-20T01:12:23;11.57;;;6.13;;
9108;SDS011;4590;51.462;6.692;2023-12-20T01:14:48;12.57;;;5.30;;
9108;SDS011;4590;51.462;6.692;2023-12-20T01:17:13;9.80;;;5.70;;
9108;SDS011;4590;51.462;6.692;2023-12-20T01:19:39;12.77;;;6.50;;
9108;SDS011;4590;51.462;6.692;2023-12-20T01:22:04;9.73;;;5.50;;
9108;SDS011;4590;51.462;6.692;2023-12-20T01:24:29;11.93;;;6.10;;
9108;SDS011;4590;51.462;6.692;2023-12-20T01:26:55;11.70;;;5.23;;
9108;SDS011;4590;51.462;6.692;2023-12-20T01:29:20;10.17;;;5.47;;
9108;SDS011;4590;51.462;6.692;2023-12-20T01:31:45;16.23;;;5.47;;
9108;SDS011;4590;51.462;6.692;2023-12-20T01:34:11;12.30;;;4.73;;
9108;SDS011;4590;51.462;6.692;2023-12-20T01:36:36;9.93;;;5.07;;
9108;SDS011;4590;51.462;6.692;2023-12-20T01:39:01;10.70;;;5.20;;
9108;SDS011;4590;51.462;6.692;2023-12-20T01:41:26;9.33;;;4.50;;
9108;SDS011;4590;51.462;6.692;2023-12-20T01:43:52;8.77;;;4.33;;
9108;SDS011;4590;51.462;6.692;2023-12-20T01:46:18;9.90;;;4.43;;
9108;SDS011;4590;51.462;6.692;2023-12-20T01:48:44;10.32;;;4.28;;
9108;SDS011;4590;51.462;6.692;2023-12-20T01:51:10;10.50;;;4.90;;
9108;SDS011;4590;51.462;6.692;2023-12-20T01:53:36;9.40;;;4.93;;
9108;SDS011;4590;51.462;6.692;2023-12-20T01:56:01;11.50;;;4.95;;
9108;SDS011;4590;51.462;6.692;2023-12-20T01:58:27;9.03;;;4.17;;
9108;SDS011;4590;51.462;6.692;2023-12-20T02:00:52;9.57;;;4.97;;
9108;SDS011;4590;51.462;6.692;2023-12-20T02:03:18;7.78;;;4.35;;
9108;SDS011;4590;51.462;6.692;2023-12-20T02:05:44;13.97;;;5.10;;
9108;SDS011;4590;51.462;6.692;2023-12-20T02:08:10;9.55;;;4.50;;
9108;SDS011;4590;51.462;6.692;2023-12-20T02:10:35;9.33;;;4.60;;
9108;SDS011;4590;51.462;6.692;2023-12-20T02:13:01;8.13;;;4.00;;
9108;SDS011;4590;51.462;6.692;2023-12-20T02:15:26;10.40;;;4.87;;
9108;SDS011;4590;51.462;6.692;2023-12-20T02:17:51;11.47;;;5.07;;
9108;SDS011;4590;51.462;6.692;2023-12-20T02:20:17;13.43;;;5.90;;
9108;SDS011;4590;51.462;6.692;2023-12-20T02:22:42;13.17;;;4.43;;
9108;SDS011;4590;51.462;6.692;2023-12-20T02:25:08;10.60;;;5.33;;
9108;SDS011;4590;51.462;6.692;2023-12-20T02:27:34;9.97;;;5.33;;
9108;SDS011;4590;51.462;6.692;2023-12-20T02:29:59;8.73;;;4.65;;
9108;SDS011;4590;51.462;6.692;2023-12-20T02:32:25;12.70;;;5.57;;
9108;SDS011;4590;51.462;6.692;2023-12-20T02:34:54;15.07;;;5.30;;
9108;SDS011;4590;51.462;6.692;2023-12-20T02:37:19;10.77;;;4.50;;
9108;SDS011;4590;51.462;6.692;2023-12-20T02:39:45;9.00;;;4.60;;
9108;SDS011;4590;51.462;6.692;2023-12-20T02:42:10;11.23;;;3.90;;
9108;SDS011;4590;51.462;6.692;2023-12-20T02:44:35;10.90;;;3.63;;
9108;SDS011;4590;51.462;6.692;2023-12-20T02:47:01;9.75;;;3.60;;
9108;SDS011;4590;51.462;6.692;2023-12-20T02:49:27;12.18;;;3.58;;
9108;SDS011;4590;51.462;6.692;2023-12-20T02:51:52;5.67;;;3.20;;
9108;SDS011;4590;51.462;6.692;2023-12-20T02:54:17;9.77;;;3.30;;
9108;SDS011;4590;51.462;6.692;2023-12-20T02:56:42;7.60;;;3.13;;
9108;SDS011;4590;51.462;6.692;2023-12-20T02:59:08;8.07;;;2.60;;
9108;SDS011;4590;51.462;6.692;2023-12-20T03:01:34;10.55;;;2.70;;
9108;SDS011;4590;51.462;6.692;2023-12-20T03:03:59;13.07;;;3.10;;
9108;SDS011;4590;51.462;6.692;2023-12-20T03:06:25;6.47;;;3.30;;
9108;SDS011;4590;51.462;6.692;2023-12-20T03:08:50;9.13;;;2.90;;
9108;SDS011;4590;51.462;6.692;2023-12-20T03:11:15;7.37;;;2.90;;
9108;SDS011;4590;51.462;6.692;2023-12-20T03:13:41;7.33;;;2.63;;
9108;SDS011;4590;51.462;6.692;2023-12-20T03:16:09;10.70;;;2.97;;
9108;SDS011;4590;51.462;6.692;2023-12-20T03:18:35;8.45;;;2.63;;
9108;SDS011;4590;51.462;6.692;2023-12-20T03:21:00;10.23;;;3.07;;
9108;SDS011;4590;51.462;6.692;2023-12-20T03:23:26;11.80;;;2.63;;
9108;SDS011;4590;51.462;6.692;2023-12-20T03:25:52;5.55;;;2.00;;
9108;SDS011;4590;51.462;6.692;2023-12-20T03:28:17;7.50;;;2.77;;
9108;SDS011;4590;51.462;6.692;2023-12-20T03:30:43;9.93;;;2.80;;
9108;SDS011;4590;51.462;6.692;2023-12-20T03:33:08;6.77;;;2.03;;
9108;SDS011;4590;51.462;6.692;2023-12-20T03:35:34;8.47;;;2.20;;
9108;SDS011;4590;51.462;6.692;2023-12-20T03:37:59;8.50;;;2.07;;
9108;SDS011;4590;51.462;6.692;2023-12-20T03:40:26;7.22;;;2.00;;
9108;SDS011;4590;51.462;6.692;2023-12-20T03:42:51;6.67;;;2.30;;
9108;SDS011;4590;51.462;6.692;2023-12-20T03:45:17;7.77;;;2.30;;
9108;SDS011;4590;51.462;6.692;2023-12-20T03:47:42;9.90;;;2.40;;
9108;SDS011;4590;51.462;6.692;2023-12-20T03:50:07;13.70;;;2.47;;
9108;SDS011;4590;51.462;6.692;2023-12-20T03:52:33;8.90;;;2.30;;
9108;SDS011;4590;51.462;6.692;2023-12-20T03:54:58;10.17;;;2.00;;
9108;SDS011;4590;51.462;6.692;2023-12-20T03:57:23;11.83;;;2.57;;
9108;SDS011;4590;51.462;6.692;2023-12-20T03:59:48;8.80;;;2.57;;
9108;SDS011;4590;51.462;6.692;2023-12-20T04:02:13;15.00;;;2.60;;
9108;SDS011;4590;51.462;6.692;2023-12-20T04:04:39;10.97;;;2.37;;
9108;SDS011;4590;51.462;6.692;2023-12-20T04:07:04;11.50;;;2.20;;
9108;SDS011;4590;51.462;6.692;2023-12-20T04:09:29;9.13;;;2.20;;
9108;SDS011;4590;51.462;6.692;2023-12-20T04:11:55;6.33;;;1.83;;
9108;SDS011;4590;51.462;6.692;2023-12-20T04:14:20;5.90;;;1.80;;
9108;SDS011;4590;51.462;6.692;2023-12-20T04:16:45;7.83;;;2.20;;
9108;SDS011;4590;51.462;6.692;2023-12-20T04:19:11;9.10;;;2.23;;
9108;SDS011;4590;51.462;6.692;2023-12-20T04:21:36;8.03;;;2.30;;
9108;SDS011;4590;51.462;6.692;2023-12-20T04:24:01;6.40;;;1.77;;
9108;SDS011;4590;51.462;6.692;2023-12-20T04:26:27;10.27;;;2.73;;
9108;SDS011;4590;51.462;6.692;2023-12-20T04:28:52;8.73;;;2.17;;
9108;SDS011;4590;51.462;6.692;2023-12-20T04:31:17;12.93;;;2.60;;
9108;SDS011;4590;51.462;6.692;2023-12-20T04:33:42;10.23;;;1.97;;
9108;SDS011;4590;51.462;6.692;2023-12-20T04:36:08;9.50;;;2.40;;
9108;SDS011;4590;51.462;6.692;2023-12-20T04:38:34;12.75;;;2.53;;
9108;SDS011;4590;51.462;6.692;2023-12-20T04:40:59;10.40;;;2.50;;
9108;SDS011;4590;51.462;6.692;2023-12-20T04:43:24;8.60;;;2.37;;
9108;SDS011;4590;51.462;6.692;2023-12-20T04:45:50;12.33;;;2.87;;
9108;SDS011;4590;51.462;6.692;2023-12-20T04:48:15;12.13;;;2.67;;
9108;SDS011;4590;51.462;6.692;2023-12-20T04:50:41;8.95;;;3.42;;
9108;SDS011;4590;51.462;6.692;2023-12-20T04:53:07;10.63;;;2.70;;
9108;SDS011;4590;51.462;6.692;2023-12-20T04:55:32;9.70;;;3.17;;
9108;SDS011;4590;51.462;6.692;2023-12-20T04:57:57;11.40;;;3.67;;
9108;SDS011;4590;51.462;6.692;2023-12-20T05:00:23;11.57;;;3.57;;
9108;SDS011;4590;51.462;6.692;2023-12-20T05:02:48;11.10;;;2.60;;
9108;SDS011;4590;51.462;6.692;2023-12-20T05:05:13;7.50;;;2.60;;
9108;SDS011;4590;51.462;6.692;2023-12-20T05:07:40;8.05;;;2.70;;
9108;SDS011;4590;51.462;6.692;2023-12-20T05:10:05;11.63;;;3.13;;
9108;SDS011;4590;51.462;6.692;2023-12-20T05:12:32;10.27;;;2.70;;
9108;SDS011;4590;51.462;6.692;2023-12-20T05:14:58;12.57;;;3.07;;
9108;SDS011;4590;51.462;6.692;2023-12-20T05:17:23;10.27;;;3.30;;
9108;SDS011;4590;51.462;6.692;2023-12-20T05:19:48;9.33;;;3.00;;
9108;SDS011;4590;51.462;6.692;2023-12-20T05:22:14;8.83;;;3.60;;
9108;SDS011;4590;51.462;6.692;2023-12-20T05:24:39;9.97;;;3.83;;
9108;SDS011;4590;51.462;6.692;2023-12-20T05:27:04;13.80;;;4.07;;
9108;SDS011;4590;51.462;6.692;2023-12-20T05:29:29;13.63;;;3.90;;
9108;SDS011;4590;51.462;6.692;2023-12-20T05:31:55;14.10;;;3.77;;
9108;SDS011;4590;51.462;6.692;2023-12-20T05:34:20;13.30;;;4.17;;
9108;SDS011;4590;51.462;6.692;2023-12-20T05:36:45;11.03;;;3.90;;
9108;SDS011;4590;51.462;6.692;2023-12-20T05:39:10;17.10;;;4.47;;
9108;SDS011;4590;51.462;6.692;2023-12-20T05:41:36;14.27;;;3.97;;
9108;SDS011;4590;51.462;6.692;2023-12-20T05:44:01;8.30;;;3.50;;
9108;SDS011;4590;51.462;6.692;2023-12-20T05:46:26;11.70;;;4.00;;
9108;SDS011;4590;51.462;6.692;2023-12-20T05:48:52;12.55;;;4.13;;
9108;SDS011;4590;51.462;6.692;2023-12-20T05:51:18;14.07;;;4.07;;
9108;SDS011;4590;51.462;6.692;2023-12-20T05:53:43;14.40;;;3.47;;
9108;SDS011;4590;51.462;6.692;2023-12-20T05:56:09;14.85;;;3.70;;
9108;SDS011;4590;51.462;6.692;2023-12-20T05:58:35;9.85;;;3.60;;
9108;SDS011;4590;51.462;6.692;2023-12-20T06:01:00;11.47;;;3.83;;
9108;SDS011;4590;51.462;6.692;2023-12-20T06:03:28;11.82;;;3.88;;
9108;SDS011;4590;51.462;6.692;2023-12-20T06:05:53;12.60;;;3.93;;
9108;SDS011;4590;51.462;6.692;2023-12-20T06:08:19;10.67;;;3.63;;
9108;SDS011;4590;51.462;6.692;2023-12-20T06:10:44;9.43;;;3.77;;
9108;SDS011;4590;51.462;6.692;2023-12-20T06:13:09;14.87;;;3.97;;
9108;SDS011;4590;51.462;6.692;2023-12-20T06:15:34;11.23;;;3.30;;
9108;SDS011;4590;51.462;6.692;2023-12-20T06:18:00;12.40;;;4.60;;
9108;SDS011;4590;51.462;6.692;2023-12-20T06:20:26;16.43;;;4.37;;
9108;SDS011;4590;51.462;6.692;2023-12-20T06:22:51;14.47;;;4.40;;
9108;SDS011;4590;51.462;6.692;2023-12-20T06:25:16;12.73;;;3.60;;
9108;SDS011;4590;51.462;6.692;2023-12-20T06:27:41;14.90;;;4.40;;
9108;SDS011;4590;51.462;6.692;2023-12-20T06:30:07;10.13;;;3.50;;
9108;SDS011;4590;51.462;6.692;2023-12-20T06:32:36;13.05;;;3.83;;
9108;SDS011;4590;51.462;6.692;2023-12-20T06:37:29;13.25;;;4.00;;
9108;SDS011;4590;51.462;6.692;2023-12-20T06:39:55;14.47;;;4.00;;
9108;SDS011;4590;51.462;6.692;2023-12-20T06:44:46;12.27;;;4.37;;
9108;SDS011;4590;51.462;6.692;2023-12-20T06:47:12;18.90;;;4.73;;
9108;SDS011;4590;51.462;6.692;2023-12-20T06:49:39;8.93;;;3.30;;
9108;SDS011;4590;51.462;6.692;2023-12-20T06:52:04;19.77;;;4.27;;
9108;SDS011;4590;51.462;6.692;2023-12-20T06:54:29;13.10;;;3.67;;
9108;SDS011;4590;51.462;6.692;2023-12-20T06:56:55;10.17;;;3.50;;
9108;SDS011;4590;51.462;6.692;2023-12-20T06:59:20;13.30;;;4.40;;
9108;SDS011;4590;51.462;6.692;2023-12-20T07:01:48;9.73;;;4.13;;
9108;SDS011;4590;51.462;6.692;2023-12-20T07:04:14;9.95;;;3.63;;
9108;SDS011;4590;51.462;6.692;2023-12-20T07:06:39;14.17;;;3.77;;
9108;SDS011;4590;51.462;6.692;2023-12-20T07:09:16;12.90;;;3.30;;
9108;SDS011;4590;51.462;6.692;2023-12-20T07:11:42;12.23;;;3.80;;
9108;SDS011;4590;51.462;6.692;2023-12-20T07:14:07;12.20;;;3.23;;
9108;SDS011;4590;51.462;6.692;2023-12-20T07:16:33;9.15;;;3.17;;
9108;SDS011;4590;51.462;6.692;2023-12-20T07:18:59;11.55;;;3.47;;
9108;SDS011;4590;51.462;6.692;2023-12-20T07:21:25;14.40;;;3.47;;
9108;SDS011;4590;51.462;6.692;2023-12-20T07:23:50;9.77;;;3.13;;
9108;SDS011;4590;51.462;6.692;2023-12-20T07:26:15;10.40;;;3.33;;
9108;SDS011;4590;51.462;6.692;2023-12-20T07:28:41;9.93;;;3.60;;
9108;SDS011;4590;51.462;6.692;2023-12-20T07:31:06;12.73;;;4.03;;
9108;SDS011;4590;51.462;6.692;2023-12-20T07:33:31;12.60;;;3.30;;
9108;SDS011;4590;51.462;6.692;2023-12-20T07:35:56;13.03;;;3.90;;
9108;SDS011;4590;51.462;6.692;2023-12-20T07:38:22;14.63;;;3.93;;
9108;SDS011;4590;51.462;6.692;2023-12-20T07:40:47;9.77;;;3.60;;
9108;SDS011;4590;51.462;6.692;2023-12-20T07:43:12;11.03;;;3.67;;
9108;SDS011;4590;51.462;6.692;2023-12-20T07:45:37;11.60;;;3.63;;
9108;SDS011;4590;51.462;6.692;2023-12-20T07:48:03;6.30;;;2.60;;
9108;SDS011;4590;51.462;6.692;2023-12-20T07:50:29;11.75;;;3.67;;
9108;SDS011;4590;51.462;6.692;2023-12-20T07:52:54;10.50;;;3.97;;
9108;SDS011;4590;51.462;6.692;2023-12-20T07:55:19;13.27;;;4.20;;
9108;SDS011;4590;51.462;6.692;2023-12-20T07:57:45;13.13;;;4.37;;
9108;SDS011;4590;51.462;6.692;2023-12-20T08:00:10;11.43;;;3.50;;
9108;SDS011;4590;51.462;6.692;2023-12-20T08:02:36;11.82;;;4.32;;
9108;SDS011;4590;51.462;6.692;2023-12-20T08:05:01;13.90;;;3.87;;
9108;SDS011;4590;51.462;6.692;2023-12-20T08:07:26;9.00;;;3.07;;
9108;SDS011;4590;51.462;6.692;2023-12-20T08:09:51;13.80;;;3.50;;
9108;SDS011;4590;51.462;6.692;2023-12-20T08:12:17;16.45;;;4.15;;
9108;SDS011;4590;51.462;6.692;2023-12-20T08:14:43;10.53;;;3.63;;
9108;SDS011;4590;51.462;6.692;2023-12-20T08:17:08;11.20;;;3.60;;
9108;SDS011;4590;51.462;6.692;2023-12-20T08:19:34;13.03;;;3.80;;
9108;SDS011;4590;51.462;6.692;2023-12-20T08:21:59;10.20;;;3.23;;
9108;SDS011;4590;51.462;6.692;2023-12-20T08:24:24;13.27;;;3.70;;
9108;SDS011;4590;51.462;6.692;2023-12-20T08:26:49;10.47;;;3.60;;
9108;SDS011;4590;51.462;6.692;2023-12-20T08:29:15;12.03;;;3.43;;
9108;SDS011;4590;51.462;6.692;2023-12-20T08:31:40;10.20;;;3.27;;
9108;SDS011;4590;51.462;6.692;2023-12-20T08:34:05;15.70;;;4.50;;
9108;SDS011;4590;51.462;6.692;2023-12-20T08:36:30;9.13;;;2.63;;
9108;SDS011;4590;51.462;6.692;2023-12-20T08:38:56;13.37;;;3.47;;
9108;SDS011;4590;51.462;6.692;2023-12-20T08:41:21;10.10;;;2.90;;
9108;SDS011;4590;51.462;6.692;2023-12-20T08:43:46;9.80;;;3.10;;
9108;SDS011;4590;51.462;6.692;2023-12-20T08:46:13;11.50;;;2.97;;
9108;SDS011;4590;51.462;6.692;2023-12-20T08:48:39;13.13;;;2.75;;
9108;SDS011;4590;51.462;6.692;2023-12-20T08:51:04;18.13;;;3.67;;
9108;SDS011;4590;51.462;6.692;2023-12-20T08:53:32;11.63;;;3.22;;
9108;SDS011;4590;51.462;6.692;2023-12-20T08:58:26;10.93;;;3.15;;
9108;SDS011;4590;51.462;6.692;2023-12-20T09:00:51;10.57;;;2.87;;
9108;SDS011;4590;51.462;6.692;2023-12-20T09:03:16;9.03;;;2.53;;
9108;SDS011;4590;51.462;6.692;2023-12-20T09:05:42;11.50;;;3.50;;
9108;SDS011;4590;51.462;6.692;2023-12-20T09:08:07;9.80;;;2.63;;
9108;SDS011;4590;51.462;6.692;2023-12-20T09:10:34;15.23;;;3.42;;
9108;SDS011;4590;51.462;6.692;2023-12-20T09:13:00;6.90;;;2.37;;
9108;SDS011;4590;51.462;6.692;2023-12-20T09:15:25;7.80;;;2.83;;
9108;SDS011;4590;51.462;6.692;2023-12-20T09:20:17;12.25;;;2.88;;
9108;SDS011;4590;51.462;6.692;2023-12-20T09:22:42;17.30;;;3.93;;
9108;SDS011;4590;51.462;6.692;2023-12-20T09:25:09;12.25;;;3.00;;
9108;SDS011;4590;51.462;6.692;2023-12-20T09:27:35;9.05;;;2.70;;
9108;SDS011;4590;51.462;6.692;2023-12-20T09:30:00;9.43;;;2.63;;
9108;SDS011;4590;51.462;6.692;2023-12-20T09:32:25;17.20;;;3.40;;
9108;SDS011;4590;51.462;6.692;2023-12-20T09:34:51;22.10;;;4.40;;
9108;SDS011;4590;51.462;6.692;2023-12-20T09:37:16;7.87;;;3.23;;
9108;SDS011;4590;51.462;6.692;2023-12-20T09:39:41;11.83;;;4.20;;
9108;SDS011;4590;51.462;6.692;2023-12-20T09:42:07;13.87;;;3.33;;
9108;SDS011;4590;51.462;6.692;2023-12-20T09:44:32;7.63;;;2.97;;
9108;SDS011;4590;51.462;6.692;2023-12-20T09:47:00;10.10;;;2.53;;
9108;SDS011;4590;51.462;6.692;2023-12-20T09:49:28;10.80;;;3.15;;
9108;SDS011;4590;51.462;6.692;2023-12-20T09:51:55;9.73;;;3.45;;
9108;SDS011;4590;51.462;6.692;2023-12-20T09:54:21;12.98;;;3.95;;
9108;SDS011;4590;51.462;6.692;2023-12-20T09:59:13;13.43;;;2.78;;
9108;SDS011;4590;51.462;6.692;2023-12-20T10:01:42;18.98;;;4.20;;
9108;SDS011;4590;51.462;6.692;2023-12-20T10:04:08;8.30;;;2.90;;
9108;SDS011;4590;51.462;6.692;2023-12-20T10:06:40;10.38;;;2.60;;
9108;SDS011;4590;51.462;6.692;2023-12-20T10:09:07;10.68;;;2.80;;
9108;SDS011;4590;51.462;6.692;2023-12-20T10:11:34;7.75;;;2.92;;
9108;SDS011;4590;51.462;6.692;2023-12-20T10:14:02;11.02;;;3.03;;
9108;SDS011;4590;51.462;6.692;2023-12-20T10:16:28;15.18;;;3.45;;
9108;SDS011;4590;51.462;6.692;2023-12-20T10:18:54;8.95;;;2.80;;
9108;SDS011;4590;51.462;6.692;2023-12-20T10:21:19;11.50;;;3.20;;
9108;SDS011;4590;51.462;6.692;2023-12-20T10:36:41;12.15;;;2.60;;
9108;SDS011;4590;51.462;6.692;2023-12-20T10:39:06;9.53;;;3.33;;
9108;SDS011;4590;51.462;6.692;2023-12-20T11:55:38;15.23;;;7.22;;
9108;SDS011;4590;51.462;6.692;2023-12-20T11:58:03;11.20;;;4.70;;
9108;SDS011;4590;51.462;6.692;2023-12-20T12:00:29;10.48;;;4.43;;
9108;SDS011;4590;51.462;6.692;2023-12-20T12:02:55;10.23;;;4.83;;
9108;SDS011;4590;51.462;6.692;2023-12-20T12:41:34;12.50;;;5.43;;
9108;SDS011;4590;51.462;6.692;2023-12-20T12:43:59;18.17;;;9.90;;
9108;SDS011;4590;51.462;6.692;2023-12-20T12:46:24;14.23;;;5.37;;
9108;SDS011;4590;51.462;6.692;2023-12-20T12:48:49;14.87;;;5.37;;
9108;SDS011;4590;51.462;6.692;2023-12-20T12:51:15;15.67;;;6.63;;
9108;SDS011;4590;51.462;6.692;2023-12-20T12:53:41;13.77;;;5.25;;
9108;SDS011;4590;51.462;6.692;2023-12-20T12:56:06;11.93;;;3.77;;
9108;SDS011;4590;51.462;6.692;2023-12-20T13:27:46;11.05;;;4.68;;
9108;SDS011;4590;51.462;6.692;2023-12-20T13:30:11;11.98;;;4.10;;
9108;SDS011;4590;51.462;6.692;2023-12-20T13:35:25;10.50;;;4.35;;
9108;SDS011;4590;51.462;6.692;2023-12-20T13:37:50;11.97;;;4.60;;
9108;SDS011;4590;51.462;6.692;2023-12-20T13:40:36;9.55;;;4.15;;
9108;SDS011;4590;51.462;6.692;2023-12-20T13:43:01;12.93;;;5.20;;
9108;SDS011;4590;51.462;6.692;2023-12-20T13:45:28;9.23;;;4.30;;
9108;SDS011;4590;51.462;6.692;2023-12-20T13:48:01;9.82;;;4.30;;
9108;SDS011;4590;51.462;6.692;2023-12-20T13:50:27;12.23;;;6.30;;
9108;SDS011;4590;51.462;6.692;2023-12-20T13:52:52;10.87;;;4.50;;
9108;SDS011;4590;51.462;6.692;2023-12-20T15:58:42;11.65;;;4.28;;
9108;SDS011;4590;51.462;6.692;2023-12-20T16:01:07;12.37;;;4.30;;
9108;SDS011;4590;51.462;6.692;2023-12-20T16:03:32;9.20;;;4.57;;
9108;SDS011;4590;51.462;6.692;2023-12-20T16:05:58;8.40;;;4.80;;
9108;SDS011;4590;51.462;6.692;2023-12-20T16:08:26;14.50;;;5.18;;
9108;SDS011;4590;51.462;6.692;2023-12-20T16:10:52;12.25;;;5.13;;
9108;SDS011;4590;51.462;6.692;2023-12-20T16:13:17;10.77;;;5.13;;
9108;SDS011;4590;51.462;6.692;2023-12-20T16:15:42;10.67;;;5.27;;
9108;SDS011;4590;51.462;6.692;2023-12-20T16:18:08;13.07;;;6.00;;
9108;SDS011;4590;51.462;6.692;2023-12-20T16:20:36;13.75;;;5.40;;
9108;SDS011;4590;51.462;6.692;2023-12-20T16:23:02;9.85;;;4.97;;
9108;SDS011;4590;51.462;6.692;2023-12-20T16:25:27;12.17;;;5.00;;
9108;SDS011;4590;51.462;6.692;2023-12-20T16:27:52;14.10;;;4.77;;
9108;SDS011;4590;51.462;6.692;2023-12-20T16:30:18;12.80;;;5.13;;
9108;SDS011;4590;51.462;6.692;2023-12-20T16:32:43;13.17;;;6.47;;
9108;SDS011;4590;51.462;6.692;2023-12-20T16:35:08;13.73;;;7.00;;
9108;SDS011;4590;51.462;6.692;2023-12-20T16:37:34;21.57;;;10.17;;
9108;SDS011;4590;51.462;6.692;2023-12-20T16:40:05;17.90;;;8.70;;
9108;SDS011;4590;51.462;6.692;2023-12-20T16:42:31;18.10;;;9.43;;
9108;SDS011;4590;51.462;6.692;2023-12-20T16:44:57;18.65;;;8.75;;
9108;SDS011;4590;51.462;6.692;2023-12-20T16:47:22;17.33;;;8.73;;
9108;SDS011;4590;51.462;6.692;2023-12-20T16:49:48;9.53;;;5.30;;
9108;SDS011;4590;51.462;6.692;2023-12-20T16:52:13;14.87;;;5.77;;
9108;SDS011;4590;51.462;6.692;2023-12-20T16:54:38;14.20;;;5.47;;
9108;SDS011;4590;51.462;6.692;2023-12-20T16:57:03;10.87;;;4.70;;
9108;SDS011;4590;51.462;6.692;2023-12-20T16:59:29;12.70;;;5.07;;
9108;SDS011;4590;51.462;6.692;2023-12-20T17:01:54;11.43;;;5.30;;
9108;SDS011;4590;51.462;6.692;2023-12-20T17:04:20;9.80;;;4.97;;
9108;SDS011;4590;51.462;6.692;2023-12-20T17:06:48;11.88;;;5.35;;
9108;SDS011;4590;51.462;6.692;2023-12-20T17:09:14;7.82;;;4.90;;
9108;SDS011;4590;51.462;6.692;2023-12-20T17:11:40;10.80;;;5.03;;
9108;SDS011;4590;51.462;6.692;2023-12-20T17:14:06;12.73;;;5.90;;
9108;SDS011;4590;51.462;6.692;2023-12-20T17:16:33;10.27;;;4.95;;
9108;SDS011;4590;51.462;6.692;2023-12-20T17:18:59;10.43;;;4.47;;
9108;SDS011;4590;51.462;6.692;2023-12-20T17:21:26;9.65;;;5.40;;
9108;SDS011;4590;51.462;6.692;2023-12-20T17:23:51;13.67;;;5.70;;
9108;SDS011;4590;51.462;6.692;2023-12-20T17:26:16;10.90;;;5.40;;
9108;SDS011;4590;51.462;6.692;2023-12-20T17:28:42;13.97;;;5.53;;
9108;SDS011;4590;51.462;6.692;2023-12-20T17:31:07;12.57;;;5.70;;
9108;SDS011;4590;51.462;6.692;2023-12-20T17:33:32;13.80;;;6.40;;
9108;SDS011;4590;51.462;6.692;2023-12-20T17:35:58;13.13;;;7.77;;
9108;SDS011;4590;51.462;6.692;2023-12-20T17:38:24;12.10;;;6.63;;
9108;SDS011;4590;51.462;6.692;2023-12-20T17:40:49;14.90;;;5.97;;
9108;SDS011;4590;51.462;6.692;2023-12-20T17:43:15;10.43;;;5.20;;
9108;SDS011;4590;51.462;6.692;2023-12-20T17:45:40;11.40;;;5.73;;
9108;SDS011;4590;51.462;6.692;2023-12-20T17:48:06;12.23;;;5.40;;
9108;SDS011;4590;51.462;6.692;2023-12-20T17:50:31;12.57;;;6.32;;
9108;SDS011;4590;51.462;6.692;2023-12-20T17:52:57;10.93;;;5.47;;
9108;SDS011;4590;51.462;6.692;2023-12-20T17:55:24;11.18;;;5.38;;
9108;SDS011;4590;51.462;6.692;2023-12-20T17:57:50;11.98;;;5.25;;
9108;SDS011;4590;51.462;6.692;2023-12-20T18:00:16;8.23;;;4.80;;
9108;SDS011;4590;51.462;6.692;2023-12-20T18:02:43;10.20;;;5.55;;
9108;SDS011;4590;51.462;6.692;2023-12-20T18:05:09;13.67;;;6.47;;
9108;SDS011;4590;51.462;6.692;2023-12-20T18:07:34;12.67;;;6.43;;
9108;SDS011;4590;51.462;6.692;2023-12-20T18:09:59;11.80;;;6.93;;
9108;SDS011;4590;51.462;6.692;2023-12-20T18:12:24;14.57;;;6.80;;
9108;SDS011;4590;51.462;6.692;2023-12-20T18:14:50;12.70;;;7.60;;
9108;SDS011;4590;51.462;6.692;2023-12-20T18:17:17;10.93;;;6.15;;
9108;SDS011;4590;51.462;6.692;2023-12-20T18:19:43;15.05;;;6.03;;
9108;SDS011;4590;51.462;6.692;2023-12-20T18:22:08;8.53;;;5.10;;
9108;SDS011;4590;51.462;6.692;2023-12-20T18:24:33;13.10;;;5.60;;
9108;SDS011;4590;51.462;6.692;2023-12-20T18:26:59;10.57;;;5.60;;
9108;SDS011;4590;51.462;6.692;2023-12-20T18:29:24;9.63;;;5.60;;
9108;SDS011;4590;51.462;6.692;2023-12-20T18:31:49;10.70;;;5.20;;
9108;SDS011;4590;51.462;6.692;2023-12-20T18:34:16;11.30;;;5.10;;
9108;SDS011;4590;51.462;6.692;2023-12-20T18:36:41;12.15;;;4.90;;
9108;SDS011;4590;51.462;6.692;2023-12-20T18:39:07;10.55;;;5.45;;
9108;SDS011;4590;51.462;6.692;2023-12-20T18:41:33;9.23;;;6.00;;
9108;SDS011;4590;51.462;6.692;2023-12-20T18:43:59;9.82;;;5.32;;
9108;SDS011;4590;51.462;6.692;2023-12-20T18:46:25;8.77;;;4.53;;
9108;SDS011;4590;51.462;6.692;2023-12-20T18:48:50;13.47;;;7.33;;
9108;SDS011;4590;51.462;6.692;2023-12-20T18:51:16;10.77;;;5.33;;
9108;SDS011;4590;51.462;6.692;2023-12-20T18:53:41;10.27;;;5.20;;
9108;SDS011;4590;51.462;6.692;2023-12-20T18:56:07;11.20;;;5.47;;
9108;SDS011;4590;51.462;6.692;2023-12-20T18:58:32;9.77;;;5.32;;
9108;SDS011;4590;51.462;6.692;2023-12-20T19:00:57;12.83;;;4.70;;
9108;SDS011;4590;51.462;6.692;2023-12-20T19:03:25;9.57;;;4.82;;
9108;SDS011;4590;51.462;6.692;2023-12-20T19:05:50;8.07;;;4.70;;
9108;SDS011;4590;51.462;6.692;2023-12-20T19:08:15;12.53;;;4.97;;
9108;SDS011;4590;51.462;6.692;2023-12-20T19:10:41;8.20;;;4.40;;
9108;SDS011;4590;51.462;6.692;2023-12-20T19:13:06;10.23;;;4.70;;
9108;SDS011;4590;51.462;6.692;2023-12-20T19:15:31;8.27;;;4.80;;
9108;SDS011;4590;51.462;6.692;2023-12-20T19:17:56;10.30;;;4.73;;
9108;SDS011;4590;51.462;6.692;2023-12-20T19:20:22;12.13;;;5.37;;
9108;SDS011;4590;51.462;6.692;2023-12-20T19:22:47;9.67;;;4.10;;
